Terminal Aerodrome Forecast
Issued by NWS Twin Cities, MN

Home | Current Version | Previous Version | Text Only | Print | Product List | Glossary On
Versions: 1 2 3 4 5 6 7 8 9 10 11 12 13 14 15 16 17 18 19 20 21 22 23 24 25
663
FTUS43 KMPX 061120
TAFMSP
TAF
KMSP 061120Z 0612/0718 23007KT P6SM FEW250
     FM061800 23015G23KT P6SM FEW250
     FM070000 27012KT P6SM VCSH FEW120 SCT250 PROB30 0700/0704 -TSRA
      BKN070CB OVC200
     FM070400 33009KT P6SM BKN120
     FM071200 36010KT P6SM SKC=

USA.gov is the U.S. government's official web portal to all federal, state and local government web resources and services.